Time;durP1;ratioP1;P1;durP2;ratioP2;P2;SDS_P1;SDS_P2;PMS_P1;PMS_P2;Temp;Humidity;BMP_temperature;BMP_pressure;BME280_temperature;BME280_humidity;BME280_pressure;Samples;Min_cycle;Max_cycle;Signal;HPM_P1;HPM_P2
2024/01/14 00:01:45;;;;;;;10.98;3.25;;;;;;;-15.88;50.24;99444.69;6274979;22;20130;-56
2024/01/14 00:04:11;;;;;;;8.65;3.72;;;;;;;-15.81;49.96;99459.31;6276996;22;20039;-56
2024/01/14 00:06:36;;;;;;;10.13;3.53;;;;;;;-15.77;50.35;99450.00;6276356;22;20406;-53
2024/01/14 00:09:02;;;;;;;11.07;3.35;;;;;;;-15.76;50.26;99444.03;6276259;22;20014;-57
2024/01/14 00:11:27;;;;;;;11.50;3.90;;;;;;;-15.83;50.41;99445.59;6276858;22;20380;-56
2024/01/14 00:13:53;;;;;;;10.73;3.75;;;;;;;-15.83;50.44;99440.47;6276168;22;20026;-55
2024/01/14 00:16:18;;;;;;;9.38;3.67;;;;;;;-15.84;50.56;99435.28;6275340;22;20041;-59
2024/01/14 00:18:44;;;;;;;10.85;3.40;;;;;;;-15.82;50.63;99431.06;6274665;22;20011;-57
2024/01/14 00:21:09;;;;;;;11.65;3.95;;;;;;;-15.84;50.87;99428.47;6276384;22;19996;-53
2024/01/14 00:23:35;;;;;;;9.15;2.97;;;;;;;-15.77;50.87;99429.47;6276637;22;20011;-54
2024/01/14 00:26:01;;;;;;;9.60;3.47;;;;;;;-15.88;50.76;99404.47;6276323;22;20038;-51
2024/01/14 00:28:27;;;;;;;6.90;3.38;;;;;;;-15.84;51.39;99407.97;6276630;22;20112;-55
2024/01/14 00:30:53;;;;;;;6.07;2.28;;;;;;;-15.74;51.23;99416.69;6276156;22;20389;-52
2024/01/14 00:33:18;;;;;;;14.85;3.80;;;;;;;-15.79;51.52;99408.03;6275953;22;20065;-51
2024/01/14 00:35:44;;;;;;;9.18;3.83;;;;;;;-15.80;51.61;99404.63;6276317;22;20405;-53
2024/01/14 00:38:10;;;;;;;7.47;3.55;;;;;;;-15.78;51.59;99402.09;6275209;22;20007;-52
2024/01/14 00:40:37;;;;;;;12.98;3.95;;;;;;;-15.82;51.87;99380.63;6275790;22;20030;-53
2024/01/14 00:43:03;;;;;;;8.95;3.22;;;;;;;-16.06;51.74;99320.38;6276275;22;20011;-51
2024/01/14 00:45:28;;;;;;;9.40;3.17;;;;;;;-15.66;51.73;99378.34;6275443;22;20004;-55
2024/01/14 00:47:54;;;;;;;9.27;3.45;;;;;;;-15.66;51.93;99366.38;6275766;22;20008;-55
2024/01/14 00:50:20;;;;;;;10.18;2.88;;;;;;;-15.62;52.20;99381.00;6275851;22;19996;-56
2024/01/14 00:52:45;;;;;;;9.60;3.17;;;;;;;-15.61;52.28;99376.72;6276324;22;20011;-55
2024/01/14 00:55:11;;;;;;;8.15;2.70;;;;;;;-15.66;52.48;99361.25;6275829;22;20000;-57
2024/01/14 00:57:36;;;;;;;10.40;2.85;;;;;;;-15.47;52.35;99382.09;6275764;22;20091;-55
2024/01/14 01:00:03;;;;;;;6.53;2.75;;;;;;;-15.40;52.44;99377.94;6276695;22;20000;-56
2024/01/14 01:02:30;;;;;;;10.02;2.90;;;;;;;-15.47;52.69;99372.69;6276569;22;20011;-58
2024/01/14 01:04:55;;;;;;;8.52;2.17;;;;;;;-15.41;52.67;99356.53;6275949;22;19995;-57
2024/01/14 01:07:20;;;;;;;6.32;2.22;;;;;;;-15.39;52.98;99354.84;6275866;22;20006;-55
2024/01/14 01:09:46;;;;;;;12.73;2.70;;;;;;;-15.27;53.23;99356.75;6275252;22;20402;-55
2024/01/14 01:12:11;;;;;;;8.43;2.55;;;;;;;-15.23;52.91;99365.38;6275920;22;20397;-56
2024/01/14 01:14:37;;;;;;;10.05;2.60;;;;;;;-15.21;52.92;99341.44;6274344;22;20003;-56
2024/01/14 01:17:04;;;;;;;10.27;3.25;;;;;;;-15.34;53.29;99336.97;6275956;22;20015;-57
2024/01/14 01:19:30;;;;;;;8.52;3.22;;;;;;;-15.30;53.40;99356.72;6276739;22;20007;-56
2024/01/14 01:21:55;;;;;;;8.70;3.00;;;;;;;-15.29;53.69;99353.31;6276116;22;20113;-57
2024/01/14 01:24:20;;;;;;;5.75;2.50;;;;;;;-15.30;53.89;99341.31;6275859;22;20004;-53
2024/01/14 01:26:46;;;;;;;8.60;2.90;;;;;;;-15.44;54.20;99305.16;6275742;22;20385;-52
2024/01/14 01:29:11;;;;;;;7.82;2.70;;;;;;;-15.25;54.16;99337.09;6274814;22;20004;-54
2024/01/14 01:31:37;;;;;;;5.70;2.35;;;;;;;-15.24;54.47;99320.00;6276477;22;20004;-53
2024/01/14 01:34:02;;;;;;;13.57;2.67;;;;;;;-15.20;54.49;99320.06;6275930;22;20000;-52
2024/01/14 01:36:28;;;;;;;10.98;2.63;;;;;;;-15.20;54.35;99309.78;6275569;22;20012;-55
2024/01/14 01:38:53;;;;;;;5.82;2.25;;;;;;;-15.19;54.26;99308.97;6275106;22;20011;-54
2024/01/14 01:41:19;;;;;;;7.53;2.88;;;;;;;-15.18;54.61;99314.97;6275821;22;20051;-54
2024/01/14 01:43:44;;;;;;;5.25;2.03;;;;;;;-15.03;54.81;99337.44;6275875;22;20421;-56
2024/01/14 01:46:10;;;;;;;4.80;1.77;;;;;;;-14.97;55.04;99314.41;6277776;22;20396;-56
2024/01/14 01:48:37;;;;;;;12.13;3.00;;;;;;;-14.99;55.21;99313.50;6278623;22;20262;-51
2024/01/14 01:51:02;;;;;;;5.20;2.30;;;;;;;-15.35;55.63;99253.09;6278653;22;20034;-52
2024/01/14 01:53:28;;;;;;;8.60;3.00;;;;;;;-15.01;55.55;99300.66;6277412;22;20012;-51
2024/01/14 01:55:55;;;;;;;8.30;2.80;;;;;;;-14.99;55.81;99302.38;6277798;22;20003;-54
2024/01/14 01:58:20;;;;;;;5.10;2.50;;;;;;;-14.94;55.44;99293.91;6276909;22;20026;-51
2024/01/14 02:00:48;;;;;;;6.30;2.80;;;;;;;-15.02;55.63;99278.38;6277764;22;20393;-57
2024/01/14 02:03:14;;;;;;;7.75;3.08;;;;;;;-15.12;56.22;99275.66;6276307;22;20289;-55
2024/01/14 02:05:41;;;;;;;8.57;2.53;;;;;;;-14.99;56.07;99305.81;6277383;22;20010;-55
2024/01/14 02:08:07;;;;;;;6.50;2.78;;;;;;;-15.08;56.29;99283.41;6277822;22;19995;-54
2024/01/14 02:10:32;;;;;;;7.22;2.85;;;;;;;-15.48;56.15;99218.69;6277290;22;20458;-57
2024/01/14 02:12:59;;;;;;;13.93;2.90;;;;;;;-15.24;56.40;99266.94;6277594;22;20074;-54
2024/01/14 02:15:24;;;;;;;8.55;3.00;;;;;;;-15.15;56.45;99272.22;6276051;22;20011;-52
2024/01/14 02:17:50;;;;;;;8.93;2.63;;;;;;;-15.23;56.53;99258.38;6277572;22;20011;-55
2024/01/14 02:20:35;;;;;;;7.88;3.17;;;;;;;-15.16;56.41;99241.38;6276785;22;20010;-57
2024/01/14 02:23:05;;;;;;;11.10;3.72;;;;;;;-15.21;56.54;99250.72;6276855;22;20360;-57
2024/01/14 02:25:31;;;;;;;7.47;3.10;;;;;;;-15.29;56.44;99232.63;6277734;22;20286;-58
2024/01/14 02:27:57;;;;;;;9.43;3.03;;;;;;;-15.39;57.10;99235.91;6275733;22;20023;-54
2024/01/14 02:30:23;;;;;;;6.55;2.35;;;;;;;-15.21;56.40;99225.03;6277372;22;19996;-56
2024/01/14 02:32:50;;;;;;;6.72;2.72;;;;;;;-15.32;56.83;99220.59;6276345;22;20064;-56
2024/01/14 02:35:16;;;;;;;7.93;2.50;;;;;;;-15.33;57.07;99236.84;6276885;22;19995;-56
2024/01/14 02:37:44;;;;;;;9.75;3.13;;;;;;;-15.31;57.14;99214.66;6277066;22;20011;-58
2024/01/14 02:40:11;;;;;;;9.63;3.22;;;;;;;-15.30;57.35;99221.50;6277638;22;20034;-57
2024/01/14 02:42:38;;;;;;;8.63;2.90;;;;;;;-15.32;57.45;99212.06;6277087;22;20012;-53
2024/01/14 02:45:04;;;;;;;12.50;3.30;;;;;;;-15.28;56.94;99203.53;6276925;22;20094;-55
2024/01/14 02:47:30;;;;;;;7.78;2.97;;;;;;;-15.33;57.30;99205.19;6276471;22;20015;-57
2024/01/14 02:49:55;;;;;;;8.82;3.17;;;;;;;-15.34;57.18;99199.19;6276977;22;20002;-56
2024/01/14 02:52:21;;;;;;;9.18;3.20;;;;;;;-15.32;57.36;99199.22;6276607;22;20057;-57
2024/01/14 02:54:46;;;;;;;3.88;1.80;;;;;;;-15.25;57.00;99187.34;6277278;22;20007;-57
2024/01/14 02:57:11;;;;;;;9.27;2.72;;;;;;;-15.30;57.14;99194.97;6276945;22;20297;-57
2024/01/14 02:59:37;;;;;;;6.72;2.17;;;;;;;-15.32;57.12;99179.53;6277246;22;20400;-56
2024/01/14 03:02:03;;;;;;;6.38;2.33;;;;;;;-15.41;57.60;99188.84;6277066;22;20007;-57
2024/01/14 03:04:29;;;;;;;10.43;3.15;;;;;;;-15.45;57.58;99169.94;6277369;22;20061;-55
2024/01/14 03:06:54;;;;;;;7.13;2.42;;;;;;;-15.43;57.56;99175.97;6277517;22;20008;-57
2024/01/14 03:09:21;;;;;;;7.90;2.35;;;;;;;-15.42;58.08;99169.97;6276646;22;20099;-56
2024/01/14 03:11:46;;;;;;;7.75;2.55;;;;;;;-15.43;57.99;99173.41;6277153;22;20296;-57
2024/01/14 03:14:12;;;;;;;6.53;2.67;;;;;;;-15.38;57.93;99168.34;6277647;22;20031;-56
2024/01/14 03:16:37;;;;;;;5.07;2.40;;;;;;;-15.68;57.58;99108.91;6277903;22;20292;-51
2024/01/14 03:19:03;;;;;;;8.13;2.50;;;;;;;-15.28;57.13;99177.88;6276870;22;20084;-57
2024/01/14 03:21:28;;;;;;;8.82;2.83;;;;;;;-15.39;57.40;99167.47;6276949;22;20360;-56
2024/01/14 03:23:54;;;;;;;8.43;2.53;;;;;;;-15.45;57.60;99163.09;6277612;22;20337;-56
2024/01/14 03:26:19;;;;;;;9.27;3.03;;;;;;;-15.46;57.65;99165.66;6276474;22;20011;-56
2024/01/14 03:28:45;;;;;;;7.18;2.53;;;;;;;-15.38;57.71;99163.19;6276632;22;20023;-56
2024/01/14 03:31:17;;;;;;;8.00;2.72;;;;;;;-15.46;57.80;99170.78;6277034;22;19995;-57
2024/01/14 03:33:43;;;;;;;9.32;2.65;;;;;;;-15.51;57.64;99147.63;6276920;22;20014;-58
2024/01/14 03:36:15;;;;;;;5.20;2.53;;;;;;;-15.50;57.61;99145.94;6277660;22;20000;-52
2024/01/14 03:38:41;;;;;;;7.43;2.58;;;;;;;-15.54;57.64;99139.88;6276901;22;20147;-52
2024/01/14 03:41:07;;;;;;;6.15;2.53;;;;;;;-15.60;57.56;99121.84;6276872;22;20043;-54
2024/01/14 03:43:32;;;;;;;6.47;2.60;;;;;;;-15.53;57.50;99133.91;6277098;22;20027;-54
2024/01/14 03:45:58;;;;;;;6.85;3.03;;;;;;;-15.51;57.65;99136.50;6277326;22;20011;-54
2024/01/14 03:48:23;;;;;;;10.90;3.20;;;;;;;-15.54;57.60;99132.19;6276930;22;20003;-57
2024/01/14 03:50:49;;;;;;;6.78;3.17;;;;;;;-15.58;57.61;99133.84;6276568;22;20392;-55
2024/01/14 03:53:14;;;;;;;10.35;2.90;;;;;;;-15.64;57.55;99122.66;6277180;22;20014;-53
2024/01/14 03:55:40;;;;;;;8.77;3.10;;;;;;;-15.59;57.47;99121.84;6277157;22;19996;-55
2024/01/14 03:58:06;;;;;;;9.55;3.13;;;;;;;-15.63;57.80;99109.81;6276355;22;20000;-57
2024/01/14 04:00:31;;;;;;;10.00;3.13;;;;;;;-15.63;57.63;99102.13;6249982;22;20332;-58
2024/01/14 04:02:57;;;;;;;8.57;3.25;;;;;;;-15.74;57.44;99086.59;6276402;22;20083;-58
2024/01/14 04:05:23;;;;;;;9.02;3.13;;;;;;;-15.65;57.35;99100.41;6276594;22;20270;-56
2024/01/14 04:07:51;;;;;;;10.10;3.25;;;;;;;-15.79;57.69;99079.66;6276288;22;20030;-53
2024/01/14 04:10:17;;;;;;;8.82;3.00;;;;;;;-15.68;57.71;99084.94;6275070;22;20300;-52
2024/01/14 04:12:44;;;;;;;7.47;2.78;;;;;;;-15.68;57.69;99087.50;6277484;22;20010;-51
2024/01/14 04:15:10;;;;;;;8.35;3.20;;;;;;;-15.68;57.57;99084.94;6276791;22;20027;-56
2024/01/14 04:17:35;;;;;;;7.57;2.97;;;;;;;-15.72;57.74;99079.75;6276575;22;20004;-56
2024/01/14 04:20:01;;;;;;;9.27;3.45;;;;;;;-15.73;57.65;99078.03;6276801;22;20077;-58
2024/01/14 04:22:29;;;;;;;9.88;3.60;;;;;;;-15.74;57.91;99076.31;6276340;22;20027;-53
2024/01/14 04:24:54;;;;;;;9.63;3.33;;;;;;;-15.70;57.85;99076.34;6276276;22;20427;-51
2024/01/14 04:27:20;;;;;;;8.38;3.35;;;;;;;-15.73;58.21;99072.06;6276775;22;20312;-52
2024/01/14 04:29:45;;;;;;;9.80;3.58;;;;;;;-15.73;57.29;99067.78;6275944;22;20018;-57
2024/01/14 04:32:11;;;;;;;13.45;2.70;;;;;;;-15.65;57.63;99074.75;6276266;22;20077;-54
2024/01/14 04:34:36;;;;;;;16.10;4.25;;;;;;;-15.63;57.49;99091.00;6276399;22;20292;-57
2024/01/14 04:37:02;;;;;;;9.25;3.72;;;;;;;-15.69;57.15;99062.69;6275940;22;20006;-55
2024/01/14 04:39:28;;;;;;;10.05;4.07;;;;;;;-15.70;57.28;99073.78;6276020;22;20439;-55
2024/01/14 04:41:54;;;;;;;9.45;4.45;;;;;;;-15.76;57.92;99062.63;6276485;22;20337;-58
2024/01/14 04:44:20;;;;;;;11.20;3.95;;;;;;;-15.76;57.87;99057.47;6276092;22;20014;-55
2024/01/14 04:46:46;;;;;;;14.27;4.40;;;;;;;-15.75;57.99;99074.59;6275951;22;20073;-55
2024/01/14 04:49:11;;;;;;;10.98;4.55;;;;;;;-15.76;57.71;99066.91;6274859;22;20061;-55
2024/01/14 04:51:38;;;;;;;11.73;4.80;;;;;;;-15.77;57.94;99070.31;6275309;22;20008;-56
2024/01/14 04:54:03;;;;;;;13.32;4.47;;;;;;;-15.70;58.06;99077.22;6275979;22;20026;-57
2024/01/14 04:56:29;;;;;;;11.88;5.18;;;;;;;-15.94;57.84;99018.78;6275807;22;19996;-57
2024/01/14 04:58:55;;;;;;;13.57;5.32;;;;;;;-15.75;58.05;99060.94;6276230;22;20007;-49
2024/01/14 05:01:21;;;;;;;10.40;4.75;;;;;;;-15.75;58.42;99059.19;6276600;22;20011;-54
2024/01/14 05:03:46;;;;;;;15.38;5.22;;;;;;;-15.87;58.43;99029.13;6276434;22;20297;-55
2024/01/14 05:06:12;;;;;;;13.30;5.70;;;;;;;-15.91;58.22;99011.16;6276123;22;20003;-56
2024/01/14 05:08:40;;;;;;;18.48;6.03;;;;;;;-15.80;58.53;99044.59;6276381;22;20003;-57
2024/01/14 05:11:06;;;;;;;18.08;6.50;;;;;;;-15.78;58.43;99043.78;6276572;22;20400;-56
2024/01/14 05:13:31;;;;;;;15.13;6.03;;;;;;;-15.76;58.58;99044.66;6276041;22;20028;-58
2024/01/14 05:15:57;;;;;;;16.38;6.57;;;;;;;-15.75;58.29;99043.81;6274662;22;20277;-52
2024/01/14 05:18:22;;;;;;;13.35;5.97;;;;;;;-15.73;58.37;99033.59;6276012;22;20008;-57
2024/01/14 05:20:48;;;;;;;21.77;7.00;;;;;;;-15.76;58.54;99031.84;6278438;22;20039;-55
2024/01/14 05:23:13;;;;;;;15.35;5.57;;;;;;;-15.78;58.35;99028.38;6277008;22;20417;-55
2024/01/14 05:25:39;;;;;;;17.85;6.93;;;;;;;-15.73;58.38;99039.56;6277705;22;20003;-54
2024/01/14 05:28:04;;;;;;;17.20;6.95;;;;;;;-15.71;58.06;99042.16;6278319;22;20412;-52
2024/01/14 05:30:30;;;;;;;17.75;6.72;;;;;;;-15.75;58.81;99037.84;6278747;22;20262;-55
2024/01/14 05:32:55;;;;;;;18.58;6.45;;;;;;;-15.72;58.55;99032.75;6278238;22;20015;-55
2024/01/14 05:35:21;;;;;;;17.17;6.97;;;;;;;-15.65;58.66;99026.00;6277748;22;20000;-54
2024/01/14 05:37:46;;;;;;;19.85;6.88;;;;;;;-15.45;58.65;99039.88;6278157;22;20031;-54
2024/01/14 05:40:13;;;;;;;18.58;7.00;;;;;;;-15.28;58.28;99044.34;6278610;22;20007;-55
2024/01/14 05:42:41;;;;;;;15.88;6.93;;;;;;;-15.13;58.15;99037.69;6278255;22;20007;-52
2024/01/14 05:45:08;;;;;;;22.25;6.45;;;;;;;-15.10;58.02;99022.31;6278156;22;20296;-55
2024/01/14 05:47:33;;;;;;;19.13;6.38;;;;;;;-15.05;57.70;99023.19;6278210;22;20126;-55
2024/01/14 05:49:59;;;;;;;22.42;7.20;;;;;;;-15.05;57.82;99026.63;6278569;22;20031;-55
2024/01/14 05:52:25;;;;;;;17.33;6.35;;;;;;;-15.06;58.16;99024.03;6278116;22;20069;-55
2024/01/14 05:54:51;;;;;;;18.08;7.10;;;;;;;-14.98;58.20;99022.41;6277801;22;19999;-52
2024/01/14 05:57:17;;;;;;;17.38;6.88;;;;;;;-14.94;57.90;99026.75;6277859;22;19999;-54
2024/01/14 05:59:42;;;;;;;25.45;7.38;;;;;;;-14.82;57.90;99023.44;6277774;22;20304;-55
2024/01/14 06:02:09;;;;;;;19.15;7.38;;;;;;;-14.74;57.67;99015.75;6277586;22;20019;-53
2024/01/14 06:04:34;;;;;;;18.60;6.85;;;;;;;-14.64;57.46;99019.22;6277180;22;20004;-55
2024/01/14 06:07:00;;;;;;;18.50;6.68;;;;;;;-14.59;57.20;99018.44;6277118;22;20411;-55
2024/01/14 06:09:26;;;;;;;26.13;7.28;;;;;;;-14.62;57.57;98999.53;6277371;22;20014;-56
2024/01/14 06:11:51;;;;;;;19.15;7.93;;;;;;;-14.75;57.48;98954.94;6277184;22;20043;-57
2024/01/14 06:14:17;;;;;;;23.95;8.13;;;;;;;-14.37;57.23;99013.44;6277026;22;20000;-57
2024/01/14 06:16:43;;;;;;;24.30;6.95;;;;;;;-14.42;56.81;98981.72;6277372;22;20003;-52
2024/01/14 06:19:08;;;;;;;19.17;8.00;;;;;;;-14.32;56.81;98988.63;6276885;22;20007;-56
2024/01/14 06:21:40;;;;;;;20.50;7.90;;;;;;;-14.13;56.54;99005.03;6277521;22;20035;-56
2024/01/14 06:24:05;;;;;;;21.52;7.97;;;;;;;-14.14;56.00;98989.59;6277979;22;20003;-57
2024/01/14 06:26:31;;;;;;;24.17;8.02;;;;;;;-14.56;56.30;98935.34;6276941;22;20456;-56
2024/01/14 06:28:56;;;;;;;24.50;8.80;;;;;;;-14.18;56.77;98991.28;6277584;22;20094;-56
2024/01/14 06:31:22;;;;;;;17.42;7.32;;;;;;;-14.02;57.02;98988.81;6277648;22;20011;-62
2024/01/14 06:33:47;;;;;;;26.20;7.22;;;;;;;-14.22;56.69;98940.69;6277133;22;20061;-54
2024/01/14 06:36:13;;;;;;;24.20;9.48;;;;;;;-13.83;56.74;98991.47;6277092;22;20000;-57
2024/01/14 06:38:39;;;;;;;20.33;7.43;;;;;;;-13.95;55.82;98938.25;6277627;22;20061;-54
2024/01/14 06:41:05;;;;;;;17.48;7.30;;;;;;;-13.73;55.98;98988.06;6276624;22;20016;-52
2024/01/14 06:43:30;;;;;;;19.27;6.78;;;;;;;-13.66;55.86;98978.66;6275758;22;20057;-52
2024/01/14 06:45:56;;;;;;;19.05;7.10;;;;;;;-13.63;55.42;98963.22;6276496;22;20011;-59
2024/01/14 06:48:22;;;;;;;16.98;6.90;;;;;;;-13.55;55.26;98971.81;6277987;22;20007;-55
2024/01/14 06:50:48;;;;;;;19.40;7.70;;;;;;;-13.50;55.70;98977.00;6277437;22;20057;-56
2024/01/14 06:53:13;;;;;;;17.63;7.53;;;;;;;-13.35;54.12;98974.44;6277219;22;19999;-58
2024/01/14 06:55:39;;;;;;;18.95;6.93;;;;;;;-13.27;54.52;98975.31;6279074;22;20007;-54
2024/01/14 06:58:04;;;;;;;20.63;8.60;;;;;;;-13.30;54.66;98971.84;6277637;22;20078;-54
2024/01/14 07:00:30;;;;;;;15.55;6.70;;;;;;;-13.17;54.76;98954.69;6276944;22;20004;-63
2024/01/14 07:02:56;;;;;;;17.63;7.43;;;;;;;-13.06;53.73;98950.44;6276526;22;19996;-59
2024/01/14 07:05:22;;;;;;;20.85;7.90;;;;;;;-12.91;54.01;98948.69;6250608;22;20004;-60
2024/01/14 07:07:48;;;;;;;23.13;8.38;;;;;;;-12.96;54.13;98897.19;6275537;22;20007;-65
2024/01/14 07:10:13;;;;;;;17.13;7.45;;;;;;;-12.31;52.38;98953.81;6276771;22;19996;-57
2024/01/14 07:12:39;;;;;;;19.23;8.13;;;;;;;-12.20;52.83;98947.78;6276484;22;20004;-59
2024/01/14 07:15:06;;;;;;;21.95;8.23;;;;;;;-11.94;52.07;98950.22;6277163;22;20020;-60
2024/01/14 07:17:31;;;;;;;23.02;8.30;;;;;;;-12.08;52.03;98910.75;6275639;22;20262;-61
2024/01/14 07:19:57;;;;;;;23.33;8.20;;;;;;;-11.98;51.91;98939.06;6276471;22;20075;-63
2024/01/14 07:22:22;;;;;;;20.58;8.50;;;;;;;-11.88;52.26;98931.28;6277129;22;20411;-64
2024/01/14 07:24:48;;;;;;;18.88;7.43;;;;;;;-11.49;51.79;98933.69;6276825;22;19999;-63
2024/01/14 07:27:14;;;;;;;23.05;8.60;;;;;;;-11.20;50.86;98918.00;6276591;22;20292;-62
2024/01/14 07:29:39;;;;;;;22.95;8.45;;;;;;;-11.00;50.23;98929.94;6276336;22;20079;-61
2024/01/14 07:32:05;;;;;;;25.00;8.57;;;;;;;-11.16;50.17;98927.44;6276672;22;20011;-64
2024/01/14 07:34:30;;;;;;;18.88;7.85;;;;;;;-11.48;50.59;98871.69;6276830;22;20014;-65
2024/01/14 07:36:56;;;;;;;18.80;8.00;;;;;;;-11.31;50.48;98914.66;6277126;22;20331;-64
2024/01/14 07:39:21;;;;;;;22.88;8.48;;;;;;;-11.45;50.72;98910.41;6275423;22;20086;-62
2024/01/14 07:41:47;;;;;;;21.17;8.27;;;;;;;-11.58;50.81;98912.22;6275674;22;20069;-64
2024/01/14 07:44:13;;;;;;;22.02;8.60;;;;;;;-12.05;51.28;98862.56;6276704;22;20011;-63
2024/01/14 07:46:39;;;;;;;21.15;8.57;;;;;;;-11.90;51.49;98896.88;6276322;22;20000;-64
2024/01/14 07:49:05;;;;;;;19.98;8.20;;;;;;;-11.88;51.13;98884.81;6276127;22;20011;-62
2024/01/14 07:51:30;;;;;;;19.83;8.40;;;;;;;-11.89;50.70;98890.84;6276299;22;20010;-61
2024/01/14 07:53:56;;;;;;;19.25;7.65;;;;;;;-12.18;51.23;98873.81;6276481;22;20417;-61
2024/01/14 07:56:21;;;;;;;28.63;8.95;;;;;;;-12.18;51.66;98900.44;6276021;22;20459;-62
2024/01/14 07:58:47;;;;;;;22.67;8.70;;;;;;;-12.14;51.93;98906.47;6276352;22;20071;-58
2024/01/14 08:01:12;;;;;;;23.27;8.40;;;;;;;-12.14;51.26;98903.88;6275790;22;20050;-60
2024/01/14 08:03:38;;;;;;;20.05;8.50;;;;;;;-12.21;50.90;98891.88;6275159;22;20296;-58
2024/01/14 08:06:04;;;;;;;19.75;9.02;;;;;;;-12.26;51.55;98908.25;6276060;22;19996;-58
2024/01/14 08:08:29;;;;;;;22.58;9.00;;;;;;;-12.33;51.91;98885.88;6275791;22;20070;-60
2024/01/14 08:10:55;;;;;;;22.05;8.85;;;;;;;-12.51;51.27;98829.22;6276513;22;20428;-59
2024/01/14 08:13:21;;;;;;;20.13;8.45;;;;;;;-12.29;51.21;98873.84;6275645;22;20463;-62
2024/01/14 08:15:47;;;;;;;23.70;8.85;;;;;;;-12.36;52.01;98877.31;6275452;22;20088;-56
2024/01/14 08:18:12;;;;;;;15.93;7.05;;;;;;;-12.27;51.96;98872.97;6276573;22;20061;-58
2024/01/14 08:20:38;;;;;;;20.95;9.02;;;;;;;-12.21;51.34;98871.25;6275769;22;20333;-61
2024/01/14 08:23:03;;;;;;;24.05;9.15;;;;;;;-12.38;51.31;98854.09;6276255;22;20099;-59
2024/01/14 08:25:29;;;;;;;25.70;9.50;;;;;;;-12.30;51.60;98867.81;6276095;22;20068;-55
2024/01/14 08:27:55;;;;;;;21.58;9.38;;;;;;;-12.38;51.85;98836.03;6276287;22;20112;-53
2024/01/14 08:30:21;;;;;;;27.60;9.60;;;;;;;-12.24;52.11;98848.03;6274488;22;20015;-55
2024/01/14 08:32:46;;;;;;;28.50;10.15;;;;;;;-12.10;51.68;98841.06;6275545;22;20003;-54
2024/01/14 08:35:12;;;;;;;29.52;9.45;;;;;;;-11.99;51.61;98831.53;6276205;22;20091;-56
2024/01/14 08:37:38;;;;;;;21.98;10.18;;;;;;;-12.16;51.09;98787.78;6275673;22;20057;-53
2024/01/14 08:40:04;;;;;;;26.67;10.90;;;;;;;-12.13;51.13;98789.47;6275543;22;20008;-55
2024/01/14 08:42:31;;;;;;;27.05;10.73;;;;;;;-11.83;50.85;98829.72;6276403;22;20057;-60
2024/01/14 08:44:57;;;;;;;24.58;10.73;;;;;;;-11.80;51.00;98830.56;6276274;22;20018;-54
2024/01/14 08:47:22;;;;;;;25.73;10.85;;;;;;;-11.83;50.64;98810.78;6275741;22;20003;-54
2024/01/14 08:49:47;;;;;;;24.60;10.55;;;;;;;-11.80;50.69;98834.03;6275836;22;20550;-55
2024/01/14 08:52:13;;;;;;;33.83;11.65;;;;;;;-12.15;51.06;98765.41;6276144;22;20089;-55
2024/01/14 08:54:39;;;;;;;24.50;10.43;;;;;;;-11.77;50.32;98815.06;6275583;22;20008;-60
2024/01/14 08:57:05;;;;;;;29.55;10.70;;;;;;;-11.88;49.93;98809.94;6275395;22;20043;-58
2024/01/14 08:59:30;;;;;;;28.48;10.93;;;;;;;-12.12;50.65;98809.25;6275880;22;20013;-58
2024/01/14 09:01:56;;;;;;;20.65;9.93;;;;;;;-12.20;51.03;98824.78;6276180;22;20003;-57
2024/01/14 09:04:21;;;;;;;28.85;10.52;;;;;;;-12.24;51.10;98807.59;6274074;22;20000;-58
2024/01/14 09:06:46;;;;;;;25.10;10.07;;;;;;;-12.22;51.00;98805.03;6275676;22;20004;-56
2024/01/14 09:09:12;;;;;;;22.45;9.45;;;;;;;-12.24;51.44;98802.44;6274777;22;20000;-54
2024/01/14 09:11:38;;;;;;;22.42;9.40;;;;;;;-12.17;51.46;98790.38;6276121;22;20000;-59
2024/01/14 09:14:05;;;;;;;26.60;10.40;;;;;;;-12.08;51.40;98798.03;6275338;22;20007;-56
2024/01/14 09:16:31;;;;;;;25.45;10.57;;;;;;;-12.08;51.21;98779.13;6275894;22;20347;-54
2024/01/14 09:18:57;;;;;;;24.77;10.50;;;;;;;-12.03;51.50;98803.19;6275531;22;20079;-56
2024/01/14 09:21:22;;;;;;;21.35;9.98;;;;;;;-12.15;51.31;98749.94;6276035;22;20345;-54
2024/01/14 09:23:48;;;;;;;29.17;11.13;;;;;;;-11.83;51.43;98769.47;6275772;22;20087;-59
2024/01/14 09:26:13;;;;;;;25.00;10.93;;;;;;;-11.82;51.01;98771.19;6248254;22;20091;-58
2024/01/14 09:28:39;;;;;;;25.63;9.95;;;;;;;-11.70;50.98;98778.84;6275067;22;20011;-52
2024/01/14 09:31:05;;;;;;;23.98;10.35;;;;;;;-11.69;50.68;98775.41;6275833;22;20011;-56
2024/01/14 09:33:31;;;;;;;24.30;9.85;;;;;;;-11.71;50.43;98753.91;6276189;22;20412;-56
2024/01/14 09:35:57;;;;;;;24.52;9.82;;;;;;;-11.88;50.10;98735.09;6275227;22;20113;-58
2024/01/14 09:38:22;;;;;;;16.25;7.72;;;;;;;-11.79;50.27;98745.38;6275091;22;20007;-56
2024/01/14 09:41:01;;;;;;;27.80;11.07;;;;;;;-11.98;50.18;98747.19;6275178;22;20016;-54
2024/01/14 09:43:31;;;;;;;27.33;10.57;;;;;;;-12.10;50.72;98740.44;6274740;22;20080;-59
2024/01/14 09:45:57;;;;;;;28.23;11.18;;;;;;;-12.17;51.19;98723.28;6274826;22;20079;-52
2024/01/14 09:48:23;;;;;;;29.35;10.57;;;;;;;-12.00;51.47;98736.91;6275363;22;20086;-57
2024/01/14 09:50:50;;;;;;;26.48;11.10;;;;;;;-12.31;50.70;98682.94;6275034;22;20003;-58
2024/01/14 09:53:17;;;;;;;17.33;7.10;;;;;;;-11.79;50.46;98740.19;6275384;22;20000;-57
2024/01/14 09:55:46;;;;;;;26.13;11.25;;;;;;;-12.14;50.71;98690.59;6275349;22;19999;-54
2024/01/14 09:58:12;;;;;;;28.63;10.82;;;;;;;-11.90;50.85;98727.38;6275239;22;20008;-55
2024/01/14 10:00:40;;;;;;;30.65;11.40;;;;;;;-11.90;51.32;98731.66;6275429;22;20289;-52
2024/01/14 10:03:06;;;;;;;29.63;11.13;;;;;;;-11.88;51.21;98732.50;6275058;22;20086;-54
2024/01/14 10:05:34;;;;;;;24.92;10.80;;;;;;;-11.84;50.93;98704.09;6276431;22;20034;-57
2024/01/14 10:08:00;;;;;;;19.23;8.75;;;;;;;-11.86;51.07;98710.13;6277187;22;20077;-56
2024/01/14 10:10:28;;;;;;;25.85;10.77;;;;;;;-11.92;51.33;98699.84;6277010;22;20319;-60
2024/01/14 10:12:54;;;;;;;23.10;10.35;;;;;;;-11.89;51.33;98695.53;6277147;22;20347;-54
2024/01/14 10:15:20;;;;;;;33.20;11.40;;;;;;;-11.79;50.91;98693.72;6276807;22;19999;-53
2024/01/14 10:17:46;;;;;;;20.27;8.60;;;;;;;-11.63;50.74;98680.66;6275178;22;20141;-57
2024/01/14 10:20:12;;;;;;;27.70;9.52;;;;;;;-11.79;50.71;98673.06;6277342;22;20003;-57
2024/01/14 10:22:42;;;;;;;24.90;9.68;;;;;;;-11.72;50.94;98673.84;6277637;22;20107;-52
2024/01/14 10:25:07;;;;;;;25.55;10.65;;;;;;;-11.68;51.55;98678.97;6276937;22;20012;-56
2024/01/14 10:27:33;;;;;;;22.92;10.85;;;;;;;-11.60;51.53;98665.13;6277851;22;20014;-56
2024/01/14 10:29:58;;;;;;;25.55;10.10;;;;;;;-11.57;51.27;98658.22;6275975;22;20035;-57
2024/01/14 10:32:24;;;;;;;25.95;11.60;;;;;;;-11.58;51.48;98642.72;6276794;22;20000;-58
2024/01/14 10:34:52;;;;;;;23.05;9.82;;;;;;;-11.43;50.52;98652.06;6277076;22;20011;-53
2024/01/14 10:37:22;;;;;;;24.10;8.98;;;;;;;-11.43;50.80;98652.91;6276662;22;20003;-55
2024/01/14 10:39:50;;;;;;;24.90;10.57;;;;;;;-11.47;51.05;98648.66;6276796;22;20886;-55
2024/01/14 10:42:16;;;;;;;26.85;11.60;;;;;;;-11.51;51.06;98646.13;6277096;22;20016;-58
2024/01/14 10:44:41;;;;;;;25.90;11.68;;;;;;;-11.47;51.49;98643.50;6276939;22;20006;-57
2024/01/14 10:47:10;;;;;;;23.52;10.07;;;;;;;-11.37;51.18;98645.97;6277402;22;19996;-55
2024/01/14 10:49:41;;;;;;;26.17;10.80;;;;;;;-11.30;50.57;98642.47;6277043;22;20000;-56
2024/01/14 10:52:10;;;;;;;17.33;8.05;;;;;;;-11.26;50.89;98641.56;6276905;22;20000;-55
2024/01/14 10:54:47;;;;;;;22.88;9.98;;;;;;;-11.28;50.66;98649.31;6276419;22;20008;-58
2024/01/14 10:57:42;;;;;;;24.45;10.05;;;;;;;-11.25;50.97;98640.69;6277349;22;20003;-56
2024/01/14 11:00:09;;;;;;;30.02;11.63;;;;;;;-11.46;50.81;98645.19;6263555;22;20079;-55
2024/01/14 11:02:36;;;;;;;24.52;10.93;;;;;;;-11.44;51.27;98640.88;6277250;22;20015;-50
2024/01/14 11:05:03;;;;;;;30.90;12.30;;;;;;;-11.39;51.07;98639.09;6277169;22;20006;-51
2024/01/14 11:07:32;;;;;;;27.90;12.05;;;;;;;-11.54;50.69;98629.78;6277294;22;20090;-52
2024/01/14 11:09:59;;;;;;;25.50;10.57;;;;;;;-11.49;51.48;98634.03;6276970;22;20004;-50
2024/01/14 11:12:29;;;;;;;26.10;11.70;;;;;;;-11.53;51.45;98646.16;6277445;22;20004;-52
2024/01/14 11:15:07;;;;;;;26.23;10.90;;;;;;;-11.52;51.28;98631.50;6276830;22;20003;-51